sensor_id;sensor_type;location;lat;lon;timestamp;P1;durP1;ratioP1;P2;durP2;ratioP2
55035;SDS011;40936;53.008;6.556;2023-02-14T00:02:15;1999.90;;;999.90;;
55035;SDS011;40936;53.008;6.556;2023-02-14T00:04:41;1999.90;;;999.90;;
55035;SDS011;40936;53.008;6.556;2023-02-14T00:07:09;1999.90;;;999.90;;
55035;SDS011;40936;53.008;6.556;2023-02-14T00:09:35;1999.90;;;999.90;;
55035;SDS011;40936;53.008;6.556;2023-02-14T00:12:01;1999.90;;;999.90;;
55035;SDS011;40936;53.008;6.556;2023-02-14T00:14:27;1999.90;;;999.90;;
55035;SDS011;40936;53.008;6.556;2023-02-14T00:17:12;1999.90;;;999.90;;
55035;SDS011;40936;53.008;6.556;2023-02-14T00:19:38;1999.90;;;999.90;;
55035;SDS011;40936;53.008;6.556;2023-02-14T00:22:04;1999.90;;;999.90;;
55035;SDS011;40936;53.008;6.556;2023-02-14T00:24:30;1999.90;;;999.90;;
55035;SDS011;40936;53.008;6.556;2023-02-14T00:26:56;1999.90;;;999.90;;
55035;SDS011;40936;53.008;6.556;2023-02-14T00:29:23;1999.90;;;999.90;;
55035;SDS011;40936;53.008;6.556;2023-02-14T00:31:51;1999.90;;;999.90;;
55035;SDS011;40936;53.008;6.556;2023-02-14T00:34:17;1999.90;;;999.90;;
55035;SDS011;40936;53.008;6.556;2023-02-14T00:36:44;1999.90;;;999.90;;
55035;SDS011;40936;53.008;6.556;2023-02-14T00:39:11;1999.90;;;999.90;;
55035;SDS011;40936;53.008;6.556;2023-02-14T00:41:38;1999.90;;;999.90;;
55035;SDS011;40936;53.008;6.556;2023-02-14T00:44:04;1999.90;;;999.90;;
55035;SDS011;40936;53.008;6.556;2023-02-14T00:46:31;1999.90;;;999.90;;
55035;SDS011;40936;53.008;6.556;2023-02-14T00:48:57;1999.90;;;999.90;;
55035;SDS011;40936;53.008;6.556;2023-02-14T00:51:23;1999.90;;;999.90;;
55035;SDS011;40936;53.008;6.556;2023-02-14T00:53:49;1999.90;;;999.90;;
55035;SDS011;40936;53.008;6.556;2023-02-14T00:56:15;1999.90;;;999.90;;
55035;SDS011;40936;53.008;6.556;2023-02-14T00:58:42;1999.90;;;999.90;;
55035;SDS011;40936;53.008;6.556;2023-02-14T01:01:08;1999.90;;;999.90;;
55035;SDS011;40936;53.008;6.556;2023-02-14T01:03:35;1999.90;;;999.90;;
55035;SDS011;40936;53.008;6.556;2023-02-14T01:06:01;1999.90;;;999.90;;
55035;SDS011;40936;53.008;6.556;2023-02-14T01:08:27;1999.90;;;999.90;;
55035;SDS011;40936;53.008;6.556;2023-02-14T01:10:52;1999.90;;;999.90;;
55035;SDS011;40936;53.008;6.556;2023-02-14T01:13:18;1999.90;;;999.90;;
55035;SDS011;40936;53.008;6.556;2023-02-14T01:15:46;1999.90;;;999.90;;
55035;SDS011;40936;53.008;6.556;2023-02-14T01:18:13;1999.90;;;999.90;;
55035;SDS011;40936;53.008;6.556;2023-02-14T01:20:39;1999.90;;;999.90;;
55035;SDS011;40936;53.008;6.556;2023-02-14T01:23:05;1999.90;;;999.90;;
55035;SDS011;40936;53.008;6.556;2023-02-14T01:25:31;1999.90;;;999.90;;
55035;SDS011;40936;53.008;6.556;2023-02-14T01:27:57;1999.90;;;999.90;;
55035;SDS011;40936;53.008;6.556;2023-02-14T01:30:23;1999.90;;;999.90;;
55035;SDS011;40936;53.008;6.556;2023-02-14T01:32:50;1999.90;;;999.90;;
55035;SDS011;40936;53.008;6.556;2023-02-14T01:35:16;1999.90;;;999.90;;
55035;SDS011;40936;53.008;6.556;2023-02-14T01:37:41;1999.90;;;999.90;;
55035;SDS011;40936;53.008;6.556;2023-02-14T01:40:08;1999.90;;;999.90;;
55035;SDS011;40936;53.008;6.556;2023-02-14T01:42:35;1999.90;;;999.90;;
55035;SDS011;40936;53.008;6.556;2023-02-14T01:45:03;1999.90;;;999.90;;
55035;SDS011;40936;53.008;6.556;2023-02-14T01:47:32;1999.90;;;999.90;;
55035;SDS011;40936;53.008;6.556;2023-02-14T01:50:05;1999.90;;;999.90;;
55035;SDS011;40936;53.008;6.556;2023-02-14T01:52:36;1999.90;;;999.90;;
55035;SDS011;40936;53.008;6.556;2023-02-14T01:55:29;1999.90;;;999.90;;
55035;SDS011;40936;53.008;6.556;2023-02-14T01:58:04;1999.90;;;999.90;;
55035;SDS011;40936;53.008;6.556;2023-02-14T02:00:32;1999.90;;;999.90;;
55035;SDS011;40936;53.008;6.556;2023-02-14T02:03:18;1999.90;;;999.90;;
55035;SDS011;40936;53.008;6.556;2023-02-14T02:05:46;1999.90;;;999.90;;
55035;SDS011;40936;53.008;6.556;2023-02-14T02:08:13;1999.90;;;999.90;;
55035;SDS011;40936;53.008;6.556;2023-02-14T02:10:39;1999.90;;;999.90;;
55035;SDS011;40936;53.008;6.556;2023-02-14T02:13:06;1999.90;;;999.90;;
55035;SDS011;40936;53.008;6.556;2023-02-14T02:15:35;1999.90;;;999.90;;
55035;SDS011;40936;53.008;6.556;2023-02-14T02:18:10;1999.90;;;999.90;;
55035;SDS011;40936;53.008;6.556;2023-02-14T02:39:32;1999.90;;;999.90;;
55035;SDS011;40936;53.008;6.556;2023-02-14T02:50:26;1999.90;;;999.90;;
55035;SDS011;40936;53.008;6.556;2023-02-14T02:53:54;1999.90;;;999.90;;
55035;SDS011;40936;53.008;6.556;2023-02-14T02:56:24;1999.90;;;999.90;;
55035;SDS011;40936;53.008;6.556;2023-02-14T02:59:10;1999.90;;;999.90;;
55035;SDS011;40936;53.008;6.556;2023-02-14T03:01:51;1999.90;;;999.90;;
55035;SDS011;40936;53.008;6.556;2023-02-14T03:04:19;1999.90;;;999.90;;
55035;SDS011;40936;53.008;6.556;2023-02-14T03:07:04;1999.90;;;999.90;;
55035;SDS011;40936;53.008;6.556;2023-02-14T03:09:51;1999.90;;;999.90;;
55035;SDS011;40936;53.008;6.556;2023-02-14T03:23:37;1999.90;;;999.90;;
55035;SDS011;40936;53.008;6.556;2023-02-14T03:29:09;1999.90;;;999.90;;
55035;SDS011;40936;53.008;6.556;2023-02-14T03:34:39;1999.90;;;999.90;;
55035;SDS011;40936;53.008;6.556;2023-02-14T03:39:51;1999.90;;;999.90;;
55035;SDS011;40936;53.008;6.556;2023-02-14T03:42:30;1999.90;;;999.90;;
55035;SDS011;40936;53.008;6.556;2023-02-14T03:45:00;1999.90;;;999.90;;
55035;SDS011;40936;53.008;6.556;2023-02-14T03:47:29;1999.90;;;999.90;;
55035;SDS011;40936;53.008;6.556;2023-02-14T03:50:01;1999.90;;;999.90;;
55035;SDS011;40936;53.008;6.556;2023-02-14T03:52:35;1999.90;;;999.90;;
55035;SDS011;40936;53.008;6.556;2023-02-14T03:55:03;1999.90;;;999.90;;
55035;SDS011;40936;53.008;6.556;2023-02-14T03:57:36;1999.90;;;999.90;;
55035;SDS011;40936;53.008;6.556;2023-02-14T04:00:09;1999.90;;;999.90;;
55035;SDS011;40936;53.008;6.556;2023-02-14T04:02:43;1999.90;;;999.90;;
55035;SDS011;40936;53.008;6.556;2023-02-14T04:05:21;1999.90;;;999.90;;
55035;SDS011;40936;53.008;6.556;2023-02-14T04:07:50;1999.90;;;999.90;;
55035;SDS011;40936;53.008;6.556;2023-02-14T04:12:43;1999.90;;;999.90;;
55035;SDS011;40936;53.008;6.556;2023-02-14T04:15:09;1999.90;;;999.90;;
55035;SDS011;40936;53.008;6.556;2023-02-14T04:17:35;1999.90;;;999.90;;
55035;SDS011;40936;53.008;6.556;2023-02-14T04:20:20;1999.90;;;999.90;;
55035;SDS011;40936;53.008;6.556;2023-02-14T04:22:46;1999.90;;;999.90;;
55035;SDS011;40936;53.008;6.556;2023-02-14T04:25:12;1999.90;;;999.90;;
55035;SDS011;40936;53.008;6.556;2023-02-14T04:27:38;1999.90;;;999.90;;
55035;SDS011;40936;53.008;6.556;2023-02-14T04:30:05;1999.90;;;999.90;;
55035;SDS011;40936;53.008;6.556;2023-02-14T04:32:31;1999.90;;;999.90;;
55035;SDS011;40936;53.008;6.556;2023-02-14T04:34:57;1999.90;;;999.90;;
55035;SDS011;40936;53.008;6.556;2023-02-14T04:37:23;1999.90;;;999.90;;
55035;SDS011;40936;53.008;6.556;2023-02-14T04:39:48;1999.90;;;999.90;;
55035;SDS011;40936;53.008;6.556;2023-02-14T04:42:14;1999.90;;;999.90;;
55035;SDS011;40936;53.008;6.556;2023-02-14T04:44:40;1999.90;;;999.90;;
55035;SDS011;40936;53.008;6.556;2023-02-14T04:47:07;1999.90;;;999.90;;
55035;SDS011;40936;53.008;6.556;2023-02-14T04:49:33;1999.90;;;999.90;;
55035;SDS011;40936;53.008;6.556;2023-02-14T04:51:59;1999.90;;;999.90;;
55035;SDS011;40936;53.008;6.556;2023-02-14T04:54:31;1999.90;;;999.90;;
55035;SDS011;40936;53.008;6.556;2023-02-14T04:56:57;1999.90;;;999.90;;
55035;SDS011;40936;53.008;6.556;2023-02-14T04:59:23;1999.90;;;999.90;;
55035;SDS011;40936;53.008;6.556;2023-02-14T05:01:48;1999.90;;;999.90;;
55035;SDS011;40936;53.008;6.556;2023-02-14T05:04:14;1999.90;;;999.90;;
55035;SDS011;40936;53.008;6.556;2023-02-14T05:06:40;1999.90;;;999.90;;
55035;SDS011;40936;53.008;6.556;2023-02-14T05:09:06;1999.90;;;999.90;;
55035;SDS011;40936;53.008;6.556;2023-02-14T05:11:32;1999.90;;;999.90;;
55035;SDS011;40936;53.008;6.556;2023-02-14T05:13:57;1999.90;;;999.90;;
55035;SDS011;40936;53.008;6.556;2023-02-14T05:16:23;1999.90;;;999.90;;
55035;SDS011;40936;53.008;6.556;2023-02-14T05:18:49;1999.90;;;999.90;;
55035;SDS011;40936;53.008;6.556;2023-02-14T05:21:15;1999.90;;;999.90;;
55035;SDS011;40936;53.008;6.556;2023-02-14T05:23:41;1999.90;;;999.90;;
55035;SDS011;40936;53.008;6.556;2023-02-14T05:26:06;1999.90;;;999.90;;
55035;SDS011;40936;53.008;6.556;2023-02-14T05:28:32;1999.90;;;999.90;;
55035;SDS011;40936;53.008;6.556;2023-02-14T05:31:45;1999.90;;;999.90;;
55035;SDS011;40936;53.008;6.556;2023-02-14T05:34:11;1999.90;;;999.90;;
55035;SDS011;40936;53.008;6.556;2023-02-14T05:36:37;1999.90;;;999.90;;
55035;SDS011;40936;53.008;6.556;2023-02-14T05:39:03;1999.90;;;999.90;;
55035;SDS011;40936;53.008;6.556;2023-02-14T05:41:29;1999.90;;;999.90;;
55035;SDS011;40936;53.008;6.556;2023-02-14T05:43:54;1999.90;;;999.90;;
55035;SDS011;40936;53.008;6.556;2023-02-14T05:46:20;1999.90;;;999.90;;
55035;SDS011;40936;53.008;6.556;2023-02-14T05:48:46;1999.90;;;999.90;;
55035;SDS011;40936;53.008;6.556;2023-02-14T05:51:12;1999.90;;;999.90;;
55035;SDS011;40936;53.008;6.556;2023-02-14T05:53:38;1999.90;;;999.90;;
55035;SDS011;40936;53.008;6.556;2023-02-14T05:56:04;1999.90;;;999.90;;
55035;SDS011;40936;53.008;6.556;2023-02-14T05:58:30;1999.90;;;999.90;;
55035;SDS011;40936;53.008;6.556;2023-02-14T06:00:57;1999.90;;;999.90;;
55035;SDS011;40936;53.008;6.556;2023-02-14T06:03:23;1999.90;;;999.90;;
55035;SDS011;40936;53.008;6.556;2023-02-14T06:05:49;1999.90;;;999.90;;
55035;SDS011;40936;53.008;6.556;2023-02-14T06:08:15;1999.90;;;999.90;;
55035;SDS011;40936;53.008;6.556;2023-02-14T06:10:41;1999.90;;;999.90;;
55035;SDS011;40936;53.008;6.556;2023-02-14T06:13:07;1999.90;;;999.90;;
55035;SDS011;40936;53.008;6.556;2023-02-14T06:15:36;1999.90;;;999.90;;
55035;SDS011;40936;53.008;6.556;2023-02-14T06:18:02;1999.90;;;999.90;;
55035;SDS011;40936;53.008;6.556;2023-02-14T06:20:28;1999.90;;;999.90;;
55035;SDS011;40936;53.008;6.556;2023-02-14T06:22:54;1999.90;;;999.90;;
55035;SDS011;40936;53.008;6.556;2023-02-14T06:25:21;1999.90;;;999.90;;
55035;SDS011;40936;53.008;6.556;2023-02-14T06:27:47;1999.90;;;999.90;;
55035;SDS011;40936;53.008;6.556;2023-02-14T06:30:13;1999.90;;;999.90;;
55035;SDS011;40936;53.008;6.556;2023-02-14T06:32:40;1999.90;;;999.90;;
55035;SDS011;40936;53.008;6.556;2023-02-14T06:35:06;1999.90;;;999.90;;
55035;SDS011;40936;53.008;6.556;2023-02-14T06:37:32;1999.90;;;999.90;;
55035;SDS011;40936;53.008;6.556;2023-02-14T06:39:58;1999.90;;;999.90;;
55035;SDS011;40936;53.008;6.556;2023-02-14T06:42:25;1999.90;;;999.90;;
55035;SDS011;40936;53.008;6.556;2023-02-14T06:44:51;1999.90;;;999.90;;
55035;SDS011;40936;53.008;6.556;2023-02-14T06:47:17;1999.90;;;999.90;;
55035;SDS011;40936;53.008;6.556;2023-02-14T06:49:43;1999.90;;;999.90;;
55035;SDS011;40936;53.008;6.556;2023-02-14T06:52:09;1999.90;;;999.90;;
55035;SDS011;40936;53.008;6.556;2023-02-14T06:54:35;1999.90;;;999.90;;
55035;SDS011;40936;53.008;6.556;2023-02-14T06:57:01;1999.90;;;999.90;;
55035;SDS011;40936;53.008;6.556;2023-02-14T06:59:27;1999.90;;;999.90;;
55035;SDS011;40936;53.008;6.556;2023-02-14T07:01:53;1999.90;;;999.90;;
55035;SDS011;40936;53.008;6.556;2023-02-14T07:04:19;1999.90;;;999.90;;
55035;SDS011;40936;53.008;6.556;2023-02-14T07:06:45;1999.90;;;999.90;;
55035;SDS011;40936;53.008;6.556;2023-02-14T07:09:11;1999.90;;;999.90;;
55035;SDS011;40936;53.008;6.556;2023-02-14T07:11:41;1999.90;;;999.90;;
55035;SDS011;40936;53.008;6.556;2023-02-14T07:14:06;1999.90;;;999.90;;
55035;SDS011;40936;53.008;6.556;2023-02-14T07:16:32;1999.90;;;999.90;;
55035;SDS011;40936;53.008;6.556;2023-02-14T07:18:58;1999.90;;;999.90;;
55035;SDS011;40936;53.008;6.556;2023-02-14T07:21:24;1999.90;;;999.90;;
55035;SDS011;40936;53.008;6.556;2023-02-14T07:23:50;1999.90;;;999.90;;
55035;SDS011;40936;53.008;6.556;2023-02-14T07:26:15;1999.90;;;999.90;;
55035;SDS011;40936;53.008;6.556;2023-02-14T07:28:45;1999.90;;;999.90;;
55035;SDS011;40936;53.008;6.556;2023-02-14T07:31:15;1999.90;;;999.90;;
55035;SDS011;40936;53.008;6.556;2023-02-14T07:33:42;1999.90;;;999.90;;
55035;SDS011;40936;53.008;6.556;2023-02-14T07:36:08;1999.90;;;999.90;;
55035;SDS011;40936;53.008;6.556;2023-02-14T07:38:34;1999.90;;;999.90;;
55035;SDS011;40936;53.008;6.556;2023-02-14T07:41:01;1999.90;;;999.90;;
55035;SDS011;40936;53.008;6.556;2023-02-14T07:43:26;1999.90;;;999.90;;
55035;SDS011;40936;53.008;6.556;2023-02-14T07:45:52;1999.90;;;999.90;;
55035;SDS011;40936;53.008;6.556;2023-02-14T07:48:18;1999.90;;;999.90;;
55035;SDS011;40936;53.008;6.556;2023-02-14T07:50:44;1999.90;;;999.90;;
55035;SDS011;40936;53.008;6.556;2023-02-14T07:53:10;1999.90;;;999.90;;
55035;SDS011;40936;53.008;6.556;2023-02-14T07:55:36;1999.90;;;999.90;;
55035;SDS011;40936;53.008;6.556;2023-02-14T07:58:02;1999.90;;;999.90;;
55035;SDS011;40936;53.008;6.556;2023-02-14T08:00:28;1999.90;;;999.90;;
55035;SDS011;40936;53.008;6.556;2023-02-14T08:02:54;1999.90;;;999.90;;
55035;SDS011;40936;53.008;6.556;2023-02-14T08:05:20;1999.90;;;999.90;;
55035;SDS011;40936;53.008;6.556;2023-02-14T08:07:46;1999.90;;;999.90;;
55035;SDS011;40936;53.008;6.556;2023-02-14T08:10:12;1999.90;;;999.90;;
55035;SDS011;40936;53.008;6.556;2023-02-14T08:12:38;1999.90;;;999.90;;
55035;SDS011;40936;53.008;6.556;2023-02-14T08:15:23;1999.90;;;999.90;;
55035;SDS011;40936;53.008;6.556;2023-02-14T08:18:10;1999.90;;;999.90;;
55035;SDS011;40936;53.008;6.556;2023-02-14T08:20:37;1999.90;;;999.90;;
55035;SDS011;40936;53.008;6.556;2023-02-14T08:23:02;1999.90;;;999.90;;
55035;SDS011;40936;53.008;6.556;2023-02-14T08:25:28;1999.90;;;999.90;;
55035;SDS011;40936;53.008;6.556;2023-02-14T08:27:54;1999.90;;;999.90;;
55035;SDS011;40936;53.008;6.556;2023-02-14T08:30:20;1999.90;;;999.90;;
55035;SDS011;40936;53.008;6.556;2023-02-14T08:32:46;1999.90;;;999.90;;
55035;SDS011;40936;53.008;6.556;2023-02-14T08:35:12;1999.90;;;999.90;;
55035;SDS011;40936;53.008;6.556;2023-02-14T08:37:38;1999.90;;;999.90;;
55035;SDS011;40936;53.008;6.556;2023-02-14T08:40:04;1999.90;;;999.90;;
55035;SDS011;40936;53.008;6.556;2023-02-14T08:42:31;1999.90;;;999.90;;
55035;SDS011;40936;53.008;6.556;2023-02-14T08:44:56;1999.90;;;999.90;;
55035;SDS011;40936;53.008;6.556;2023-02-14T08:47:22;1999.90;;;999.90;;
55035;SDS011;40936;53.008;6.556;2023-02-14T08:49:48;1999.90;;;999.90;;
55035;SDS011;40936;53.008;6.556;2023-02-14T08:52:16;1999.90;;;999.90;;
55035;SDS011;40936;53.008;6.556;2023-02-14T08:54:42;1999.90;;;999.90;;
55035;SDS011;40936;53.008;6.556;2023-02-14T08:57:08;1999.90;;;999.90;;
55035;SDS011;40936;53.008;6.556;2023-02-14T08:59:34;1999.90;;;999.90;;
55035;SDS011;40936;53.008;6.556;2023-02-14T09:02:00;1999.90;;;999.90;;
55035;SDS011;40936;53.008;6.556;2023-02-14T09:04:26;1999.90;;;999.90;;
55035;SDS011;40936;53.008;6.556;2023-02-14T09:06:51;1999.90;;;999.90;;
55035;SDS011;40936;53.008;6.556;2023-02-14T09:09:17;1999.90;;;999.90;;
55035;SDS011;40936;53.008;6.556;2023-02-14T09:11:43;1999.90;;;999.90;;
55035;SDS011;40936;53.008;6.556;2023-02-14T09:14:09;1999.90;;;999.90;;
55035;SDS011;40936;53.008;6.556;2023-02-14T09:16:34;1999.90;;;999.90;;
55035;SDS011;40936;53.008;6.556;2023-02-14T09:19:00;1999.90;;;999.90;;
55035;SDS011;40936;53.008;6.556;2023-02-14T09:21:26;1999.90;;;999.90;;
55035;SDS011;40936;53.008;6.556;2023-02-14T09:23:52;1999.90;;;999.90;;
55035;SDS011;40936;53.008;6.556;2023-02-14T09:26:19;1999.90;;;999.90;;
55035;SDS011;40936;53.008;6.556;2023-02-14T09:28:45;1999.90;;;999.90;;
55035;SDS011;40936;53.008;6.556;2023-02-14T09:31:13;1999.90;;;999.90;;
55035;SDS011;40936;53.008;6.556;2023-02-14T09:33:48;1999.90;;;999.90;;
55035;SDS011;40936;53.008;6.556;2023-02-14T09:36:15;1999.90;;;999.90;;
55035;SDS011;40936;53.008;6.556;2023-02-14T09:38:44;1999.90;;;999.90;;
55035;SDS011;40936;53.008;6.556;2023-02-14T09:41:58;1999.90;;;999.90;;
55035;SDS011;40936;53.008;6.556;2023-02-14T09:44:19;1999.90;;;999.90;;
55035;SDS011;40936;53.008;6.556;2023-02-14T09:46:55;1999.90;;;999.90;;
55035;SDS011;40936;53.008;6.556;2023-02-14T09:49:33;1999.90;;;999.90;;
55035;SDS011;40936;53.008;6.556;2023-02-14T09:52:02;1999.90;;;999.90;;
55035;SDS011;40936;53.008;6.556;2023-02-14T09:54:32;1999.90;;;999.90;;
55035;SDS011;40936;53.008;6.556;2023-02-14T09:57:06;1999.90;;;999.90;;
55035;SDS011;40936;53.008;6.556;2023-02-14T09:59:49;1999.90;;;978.08;;
55035;SDS011;40936;53.008;6.556;2023-02-14T10:05:20;1999.90;;;990.67;;
55035;SDS011;40936;53.008;6.556;2023-02-14T10:08:05;1999.90;;;999.90;;
55035;SDS011;40936;53.008;6.556;2023-02-14T10:10:46;1999.90;;;999.90;;
55035;SDS011;40936;53.008;6.556;2023-02-14T10:15:55;1999.90;;;999.90;;
55035;SDS011;40936;53.008;6.556;2023-02-14T10:18:28;1999.90;;;999.90;;
55035;SDS011;40936;53.008;6.556;2023-02-14T10:21:08;1999.90;;;999.90;;
55035;SDS011;40936;53.008;6.556;2023-02-14T10:23:41;1999.90;;;999.90;;
55035;SDS011;40936;53.008;6.556;2023-02-14T10:26:18;1999.90;;;999.90;;
55035;SDS011;40936;53.008;6.556;2023-02-14T10:28:59;1999.90;;;999.90;;
55035;SDS011;40936;53.008;6.556;2023-02-14T10:31:25;1999.90;;;999.90;;
55035;SDS011;40936;53.008;6.556;2023-02-14T10:36:50;1999.90;;;705.58;;
55035;SDS011;40936;53.008;6.556;2023-02-14T10:45:19;1999.90;;;920.45;;
55035;SDS011;40936;53.008;6.556;2023-02-14T10:53:06;1999.90;;;694.20;;
55035;SDS011;40936;53.008;6.556;2023-02-14T10:55:59;1999.90;;;664.67;;
55035;SDS011;40936;53.008;6.556;2023-02-14T10:58:30;1999.90;;;688.88;;
55035;SDS011;40936;53.008;6.556;2023-02-14T11:01:00;1999.90;;;820.63;;
55035;SDS011;40936;53.008;6.556;2023-02-14T11:03:37;1999.90;;;731.08;;
55035;SDS011;40936;53.008;6.556;2023-02-14T11:06:06;1999.90;;;946.20;;
55035;SDS011;40936;53.008;6.556;2023-02-14T11:08:39;1999.90;;;872.08;;
55035;SDS011;40936;53.008;6.556;2023-02-14T11:13:40;1999.90;;;766.33;;
55035;SDS011;40936;53.008;6.556;2023-02-14T11:16:08;1999.90;;;999.90;;
55035;SDS011;40936;53.008;6.556;2023-02-14T11:18:39;1999.90;;;946.13;;
55035;SDS011;40936;53.008;6.556;2023-02-14T11:21:06;1999.90;;;953.83;;
55035;SDS011;40936;53.008;6.556;2023-02-14T11:23:37;1999.90;;;997.40;;
55035;SDS011;40936;53.008;6.556;2023-02-14T11:26:06;1999.90;;;989.30;;
55035;SDS011;40936;53.008;6.556;2023-02-14T11:28:47;1999.90;;;999.90;;
55035;SDS011;40936;53.008;6.556;2023-02-14T11:31:23;1999.90;;;971.78;;
55035;SDS011;40936;53.008;6.556;2023-02-14T11:34:01;1999.90;;;820.53;;
55035;SDS011;40936;53.008;6.556;2023-02-14T11:36:29;1999.90;;;947.22;;
55035;SDS011;40936;53.008;6.556;2023-02-14T11:39:09;1999.90;;;802.78;;
55035;SDS011;40936;53.008;6.556;2023-02-14T11:41:45;1999.90;;;956.97;;
55035;SDS011;40936;53.008;6.556;2023-02-14T11:44:20;1999.90;;;982.53;;
55035;SDS011;40936;53.008;6.556;2023-02-14T11:46:52;1999.90;;;679.28;;
55035;SDS011;40936;53.008;6.556;2023-02-14T11:49:24;1999.90;;;714.30;;
55035;SDS011;40936;53.008;6.556;2023-02-14T11:51:55;1999.90;;;662.67;;
55035;SDS011;40936;53.008;6.556;2023-02-14T11:54:26;1999.90;;;480.35;;
55035;SDS011;40936;53.008;6.556;2023-02-14T11:57:04;1999.90;;;460.25;;
55035;SDS011;40936;53.008;6.556;2023-02-14T11:59:53;1999.90;;;691.05;;
55035;SDS011;40936;53.008;6.556;2023-02-14T12:05:00;1999.90;;;664.47;;
55035;SDS011;40936;53.008;6.556;2023-02-14T12:07:30;1999.90;;;477.00;;
55035;SDS011;40936;53.008;6.556;2023-02-14T12:10:14;1999.90;;;622.25;;
55035;SDS011;40936;53.008;6.556;2023-02-14T12:20:34;1999.90;;;999.90;;
55035;SDS011;40936;53.008;6.556;2023-02-14T12:23:04;1924.57;;;782.30;;
55035;SDS011;40936;53.008;6.556;2023-02-14T12:28:20;1999.90;;;999.90;;
55035;SDS011;40936;53.008;6.556;2023-02-14T12:30:52;1999.90;;;999.90;;
55035;SDS011;40936;53.008;6.556;2023-02-14T12:33:18;1999.90;;;999.90;;
55035;SDS011;40936;53.008;6.556;2023-02-14T12:35:52;1999.90;;;999.90;;
55035;SDS011;40936;53.008;6.556;2023-02-14T12:38:54;1999.90;;;999.90;;
55035;SDS011;40936;53.008;6.556;2023-02-14T12:53:01;1999.90;;;999.90;;
55035;SDS011;40936;53.008;6.556;2023-02-14T13:18:18;1999.90;;;999.90;;
55035;SDS011;40936;53.008;6.556;2023-02-14T13:20:57;1999.90;;;999.90;;
55035;SDS011;40936;53.008;6.556;2023-02-14T13:23:42;1999.90;;;999.90;;
55035;SDS011;40936;53.008;6.556;2023-02-14T13:28:46;1999.90;;;999.90;;
55035;SDS011;40936;53.008;6.556;2023-02-14T13:31:16;1999.90;;;999.90;;
55035;SDS011;40936;53.008;6.556;2023-02-14T13:33:44;1999.90;;;999.90;;
55035;SDS011;40936;53.008;6.556;2023-02-14T13:36:14;1999.90;;;999.90;;
55035;SDS011;40936;53.008;6.556;2023-02-14T13:38:42;1999.90;;;999.90;;
55035;SDS011;40936;53.008;6.556;2023-02-14T13:41:11;1999.90;;;999.90;;
55035;SDS011;40936;53.008;6.556;2023-02-14T13:47:07;1999.90;;;999.90;;
55035;SDS011;40936;53.008;6.556;2023-02-14T13:49:20;1999.90;;;999.90;;
55035;SDS011;40936;53.008;6.556;2023-02-14T13:51:53;1999.90;;;999.90;;
55035;SDS011;40936;53.008;6.556;2023-02-14T13:57:25;1999.90;;;999.90;;
55035;SDS011;40936;53.008;6.556;2023-02-14T14:02:49;1999.90;;;999.90;;
55035;SDS011;40936;53.008;6.556;2023-02-14T14:10:45;1999.90;;;999.90;;
55035;SDS011;40936;53.008;6.556;2023-02-14T14:21:24;1999.90;;;999.90;;
55035;SDS011;40936;53.008;6.556;2023-02-14T14:26:42;1999.90;;;999.90;;
55035;SDS011;40936;53.008;6.556;2023-02-14T14:29:18;1999.90;;;999.90;;
55035;SDS011;40936;53.008;6.556;2023-02-14T14:31:57;1999.90;;;999.90;;
55035;SDS011;40936;53.008;6.556;2023-02-14T14:34:26;1999.90;;;999.90;;
55035;SDS011;40936;53.008;6.556;2023-02-14T14:39:30;1999.90;;;999.90;;
55035;SDS011;40936;53.008;6.556;2023-02-14T14:42:07;1999.90;;;999.90;;
55035;SDS011;40936;53.008;6.556;2023-02-14T14:44:43;1999.90;;;999.90;;
55035;SDS011;40936;53.008;6.556;2023-02-14T14:47:20;1999.90;;;999.90;;
55035;SDS011;40936;53.008;6.556;2023-02-14T14:49:49;1999.90;;;999.90;;
55035;SDS011;40936;53.008;6.556;2023-02-14T14:52:41;1999.90;;;999.90;;
55035;SDS011;40936;53.008;6.556;2023-02-14T14:57:40;1999.90;;;999.90;;
55035;SDS011;40936;53.008;6.556;2023-02-14T15:00:19;1999.90;;;999.90;;
55035;SDS011;40936;53.008;6.556;2023-02-14T15:02:58;1999.90;;;999.90;;
55035;SDS011;40936;53.008;6.556;2023-02-14T15:05:34;1999.90;;;999.90;;
55035;SDS011;40936;53.008;6.556;2023-02-14T15:08:15;1999.90;;;999.90;;
55035;SDS011;40936;53.008;6.556;2023-02-14T15:10:41;1999.90;;;999.90;;
55035;SDS011;40936;53.008;6.556;2023-02-14T15:13:08;1999.90;;;999.90;;
55035;SDS011;40936;53.008;6.556;2023-02-14T15:15:55;1999.90;;;999.90;;
55035;SDS011;40936;53.008;6.556;2023-02-14T15:18:22;1999.90;;;999.90;;
55035;SDS011;40936;53.008;6.556;2023-02-14T15:20:48;1999.90;;;999.90;;
55035;SDS011;40936;53.008;6.556;2023-02-14T15:23:16;1999.90;;;999.90;;
55035;SDS011;40936;53.008;6.556;2023-02-14T15:25:45;1999.90;;;999.90;;
55035;SDS011;40936;53.008;6.556;2023-02-14T15:30:57;1999.90;;;999.90;;
55035;SDS011;40936;53.008;6.556;2023-02-14T15:33:24;1999.90;;;999.90;;
55035;SDS011;40936;53.008;6.556;2023-02-14T15:35:51;1999.90;;;999.90;;
55035;SDS011;40936;53.008;6.556;2023-02-14T15:38:18;1999.90;;;999.90;;
55035;SDS011;40936;53.008;6.556;2023-02-14T15:40:45;1999.90;;;999.90;;
55035;SDS011;40936;53.008;6.556;2023-02-14T15:43:20;1999.90;;;999.90;;
55035;SDS011;40936;53.008;6.556;2023-02-14T15:45:55;1999.90;;;999.90;;
55035;SDS011;40936;53.008;6.556;2023-02-14T15:48:46;1999.90;;;999.90;;
55035;SDS011;40936;53.008;6.556;2023-02-14T15:51:16;1999.90;;;999.90;;
55035;SDS011;40936;53.008;6.556;2023-02-14T15:53:48;1999.90;;;999.90;;
55035;SDS011;40936;53.008;6.556;2023-02-14T15:56:18;1999.90;;;999.90;;
55035;SDS011;40936;53.008;6.556;2023-02-14T15:58:58;1999.90;;;304.75;;
55035;SDS011;40936;53.008;6.556;2023-02-14T16:01:26;1960.43;;;599.40;;
55035;SDS011;40936;53.008;6.556;2023-02-14T16:03:54;1999.90;;;999.90;;
55035;SDS011;40936;53.008;6.556;2023-02-14T16:06:33;1999.90;;;999.90;;
55035;SDS011;40936;53.008;6.556;2023-02-14T16:09:06;1943.43;;;824.60;;
55035;SDS011;40936;53.008;6.556;2023-02-14T16:11:49;1999.90;;;360.00;;
55035;SDS011;40936;53.008;6.556;2023-02-14T16:14:34;1999.90;;;192.82;;
55035;SDS011;40936;53.008;6.556;2023-02-14T16:17:05;1999.90;;;999.90;;
55035;SDS011;40936;53.008;6.556;2023-02-14T16:19:42;1999.90;;;724.58;;
55035;SDS011;40936;53.008;6.556;2023-02-14T16:22:23;1999.90;;;450.65;;
55035;SDS011;40936;53.008;6.556;2023-02-14T16:25:02;1999.90;;;839.88;;
55035;SDS011;40936;53.008;6.556;2023-02-14T16:27:27;1999.90;;;525.38;;
55035;SDS011;40936;53.008;6.556;2023-02-14T16:29:53;1999.90;;;339.33;;
55035;SDS011;40936;53.008;6.556;2023-02-14T16:32:19;1999.90;;;459.63;;
55035;SDS011;40936;53.008;6.556;2023-02-14T16:34:47;1999.90;;;779.85;;
55035;SDS011;40936;53.008;6.556;2023-02-14T16:37:18;1999.90;;;996.65;;